Time;durP1;ratioP1;P1;durP2;ratioP2;P2;SDS_P1;SDS_P2;PMS_P1;PMS_P2;Temp;Humidity;BMP_temperature;BMP_pressure;BME280_temperature;BME280_humidity;BME280_pressure;Samples;Min_cycle;Max_cycle;Signal;HPM_P1;HPM_P2
2023/01/06 00:01:25;;;;;;;6.88;3.08;;;;;;;8.32;63.40;99555.34;5112353;28;20051;-74
2023/01/06 00:03:54;;;;;;;4.75;2.90;;;;;;;8.82;63.63;99631.53;5112077;28;20051;-74
2023/01/06 00:06:26;;;;;;;5.60;2.97;;;;;;;7.64;63.29;99436.84;5113156;28;20116;-74
2023/01/06 00:08:56;;;;;;;7.50;2.70;;;;;;;3.49;63.16;98735.34;5114865;28;20039;-74
2023/01/06 00:11:25;;;;;;;5.80;3.15;;;;;;;7.95;63.42;99486.53;5109309;28;20074;-75
2023/01/06 00:13:52;;;;;;;9.27;2.90;;;;;;;8.82;63.45;99649.19;5111747;28;20074;-75
2023/01/06 00:16:21;;;;;;;5.53;2.63;;;;;;;6.85;63.21;99313.56;5112089;28;20118;-75
2023/01/06 00:18:48;;;;;;;6.07;2.80;;;;;;;8.84;63.64;99634.97;5111930;28;20111;-75
2023/01/06 00:21:15;;;;;;;6.93;3.55;;;;;;;8.85;63.63;99641.13;5093843;28;20120;-75
2023/01/06 00:23:44;;;;;;;4.75;2.85;;;;;;;8.87;63.51;99644.56;5111021;28;20046;-75
2023/01/06 00:26:12;;;;;;;5.80;2.72;;;;;;;8.87;63.45;99647.19;5109717;28;20064;-74
2023/01/06 00:28:39;;;;;;;5.68;3.10;;;;;;;7.32;63.38;99388.91;5110797;28;20046;-75
2023/01/06 00:31:08;;;;;;;6.90;3.45;;;;;;;8.89;63.44;99650.63;5111053;28;20047;-75
2023/01/06 00:33:35;;;;;;;4.25;1.98;;;;;;;8.89;63.65;99654.13;5110499;28;20063;-75
2023/01/06 00:36:02;;;;;;;5.30;2.78;;;;;;;8.57;63.29;99597.41;5110626;28;20044;-75
2023/01/06 00:38:30;;;;;;;4.80;2.90;;;;;;;8.91;63.48;99657.56;5112713;28;20036;-74
2023/01/06 00:40:59;;;;;;;6.07;3.47;;;;;;;8.91;63.39;99657.56;5095012;28;20046;-75
2023/01/06 00:43:26;;;;;;;7.07;2.78;;;;;;;8.14;63.29;99526.22;5110056;28;20046;-75
2023/01/06 00:45:53;;;;;;;6.38;2.95;;;;;;;8.92;63.17;99656.66;5076481;28;20054;-75
2023/01/06 00:48:20;;;;;;;8.23;3.28;;;;;;;7.77;63.22;99482.91;5112237;28;20047;-75
2023/01/06 00:50:47;;;;;;;6.25;2.90;;;;;;;8.92;63.17;99656.66;5109172;28;20108;-75
2023/01/06 00:53:15;;;;;;;7.88;2.85;;;;;;;8.92;63.24;99669.00;5110046;28;20044;-75
2023/01/06 00:55:42;;;;;;;4.15;2.40;;;;;;;7.79;63.07;99504.81;5111229;28;20036;-74
2023/01/06 00:58:10;;;;;;;5.63;3.03;;;;;;;8.91;63.27;99670.78;5110086;28;20188;-75
2023/01/06 01:00:37;;;;;;;6.38;2.83;;;;;;;7.00;62.98;99363.00;5110482;28;20095;-75
2023/01/06 01:03:04;;;;;;;7.15;2.88;;;;;;;8.89;62.85;99672.63;5110983;28;20103;-74
2023/01/06 01:05:30;;;;;;;5.80;2.88;;;;;;;5.73;62.60;99141.66;5109869;28;20047;-75
2023/01/06 01:07:57;;;;;;;6.22;2.80;;;;;;;8.89;63.02;99661.22;5113069;28;20036;-75
2023/01/06 01:10:24;;;;;;;6.80;2.67;;;;;;;8.88;62.80;99660.34;5112073;28;20103;-75
2023/01/06 01:12:55;;;;;;;9.00;2.70;;;;;;;7.76;62.73;99493.50;5112978;28;20056;-74
2023/01/06 01:15:25;;;;;;;4.85;3.17;;;;;;;8.25;62.75;99762.47;5113471;28;20067;-75
2023/01/06 01:17:55;;;;;;;6.25;3.20;;;;;;;1.36;62.53;98614.28;5096120;28;20036;-75
2023/01/06 01:20:30;;;;;;;7.68;2.83;;;;;;;8.86;62.72;99675.41;5114169;28;20067;-74
2023/01/06 01:22:56;;;;;;;5.53;2.85;;;;;;;8.88;62.58;99683.28;5113446;28;20083;-74
2023/01/06 01:25:26;;;;;;;5.68;2.50;;;;;;;4.38;62.50;99015.34;5113810;28;20043;-74
2023/01/06 01:27:53;;;;;;;6.35;2.90;;;;;;;4.01;62.33;98868.91;5113267;28;20228;-75
2023/01/06 01:30:20;;;;;;;6.88;3.45;;;;;;;8.88;62.71;99681.50;5112477;28;20058;-75
2023/01/06 01:32:49;;;;;;;7.20;3.03;;;;;;;3.03;62.26;98699.47;5112712;28;20048;-74
2023/01/06 01:35:16;;;;;;;6.88;3.22;;;;;;;8.88;62.54;99685.94;5093354;28;20039;-74
2023/01/06 01:37:43;;;;;;;6.60;3.00;;;;;;;1.71;61.96;98484.38;5111322;28;20055;-74
2023/01/06 01:40:11;;;;;;;6.90;2.80;;;;;;;8.88;62.38;99693.84;5111980;28;20103;-74
2023/01/06 01:42:42;;;;;;;7.28;2.63;;;;;;;8.87;62.39;99692.13;5111028;28;20035;-74
2023/01/06 01:45:22;;;;;;;6.32;2.88;;;;;;;8.88;62.14;99693.84;5112440;28;20032;-75
2023/01/06 01:47:56;;;;;;;5.50;2.83;;;;;;;4.74;61.95;99006.13;5113155;28;20036;-75
2023/01/06 01:50:31;;;;;;;4.80;2.30;;;;;;;2.39;61.59;98599.66;5112790;28;20058;-75
2023/01/06 01:53:01;;;;;;;;;;;;;;;8.81;61.23;99698.53;5114060;28;20043;-75
2023/01/06 01:55:29;;;;;;;6.50;2.78;;;;;;;0.26;61.85;98242.03;5114115;28;20158;-75
2023/01/06 01:58:00;;;;;;;8.40;3.22;;;;;;;2.48;61.85;98608.94;5113854;28;20103;-75
2023/01/06 02:00:27;;;;;;;4.70;2.95;;;;;;;3.22;61.94;98736.34;5114050;28;20103;-75
2023/01/06 02:02:56;;;;;;;8.63;3.33;;;;;;;2.34;61.47;98593.72;5113186;28;20111;-75
2023/01/06 02:05:31;;;;;;;9.50;3.47;;;;;;;8.44;61.66;99820.72;5113640;28;20039;-75
2023/01/06 02:08:04;;;;;;;5.32;2.92;;;;;;;8.24;61.88;99577.72;5113705;28;20255;-75
2023/01/06 02:10:32;;;;;;;6.90;3.13;;;;;;;2.97;61.51;98688.38;5112764;28;20055;-75
2023/01/06 02:13:00;;;;;;;4.97;2.70;;;;;;;8.81;61.92;99695.91;5112216;28;20056;-75
2023/01/06 02:15:34;;;;;;;5.22;3.38;;;;;;;6.02;61.57;99226.44;5112115;28;20127;-75
2023/01/06 02:18:49;;;;;;;7.80;3.13;;;;;;;3.29;61.06;98771.88;5112968;28;20054;-75
2023/01/06 02:21:36;;;;;;;7.40;2.58;;;;;;;8.77;61.82;99704.03;5050758;28;20051;-75
2023/01/06 02:24:31;;;;;;;5.78;2.72;;;;;;;8.76;61.77;99697.03;5032157;28;20045;-74
2023/01/06 02:27:20;;;;;;;7.20;3.17;;;;;;;8.73;61.95;99690.06;5099499;28;20044;-75
2023/01/06 02:30:38;;;;;;;6.35;2.70;;;;;;;8.73;61.74;99699.78;5108798;28;20071;-75
2023/01/06 02:33:13;;;;;;;5.88;2.97;;;;;;;8.73;62.17;99705.06;5046586;28;20045;-74
2023/01/06 02:36:03;;;;;;;5.68;2.97;;;;;;;8.73;61.97;99713.00;5046436;28;20052;-76
2023/01/06 02:38:45;;;;;;;6.55;2.50;;;;;;;8.71;62.05;99709.56;5088988;28;20055;-75
2023/01/06 02:41:27;;;;;;;6.55;2.85;;;;;;;8.70;62.31;99706.06;5108571;28;20051;-74
2023/01/06 02:44:03;;;;;;;5.72;3.17;;;;;;;8.67;62.40;99701.75;5110132;28;20040;-75
2023/01/06 02:46:59;;;;;;;8.68;3.17;;;;;;;8.67;62.17;99700.91;5109706;28;20036;-74
2023/01/06 02:49:32;;;;;;;6.20;2.42;;;;;;;7.94;62.41;99587.75;5112764;28;20039;-75
2023/01/06 02:52:05;;;;;;;7.50;3.15;;;;;;;7.81;62.62;99570.69;5111885;28;20032;-75
2023/01/06 02:54:41;;;;;;;8.25;3.47;;;;;;;8.60;62.21;99697.66;5112740;28;20078;-75
2023/01/06 02:57:16;;;;;;;8.55;2.95;;;;;;;8.59;62.44;99693.31;5111319;28;20314;-75
2023/01/06 02:59:50;;;;;;;5.63;2.58;;;;;;;8.56;62.28;99698.72;5114236;28;20070;-75
2023/01/06 03:02:19;;;;;;;7.53;3.42;;;;;;;7.79;62.73;99588.38;5112319;28;20036;-75
2023/01/06 03:04:51;;;;;;;6.22;2.83;;;;;;;8.30;62.49;99659.31;5111610;28;20040;-75
2023/01/06 03:10:15;;;;;;;8.40;3.53;;;;;;;7.24;62.40;99492.94;5114203;28;20123;-75
2023/01/06 03:12:49;;;;;;;10.68;3.42;;;;;;;6.62;62.63;99401.38;5113678;28;20048;-75
2023/01/06 03:15:16;;;;;;;8.05;2.97;;;;;;;2.06;62.61;98626.94;5114377;28;20054;-75
2023/01/06 03:17:44;;;;;;;6.28;2.70;;;;;;;8.42;62.95;99698.41;5095294;28;20119;-75
2023/01/06 03:20:14;;;;;;;7.30;2.95;;;;;;;7.87;62.83;99604.75;5112326;28;20288;-75
2023/01/06 03:22:41;;;;;;;7.30;3.03;;;;;;;7.03;62.99;99510.47;5112688;28;20035;-75
2023/01/06 03:25:09;;;;;;;6.20;3.00;;;;;;;8.37;62.94;99703.03;5113596;28;20116;-75
2023/01/06 03:27:36;;;;;;;5.45;2.63;;;;;;;8.36;63.15;99696.03;5111814;28;20040;-75
2023/01/06 03:30:08;;;;;;;7.30;3.22;;;;;;;8.34;62.97;99703.16;5113703;28;20062;-75
2023/01/06 03:32:46;;;;;;;5.57;3.08;;;;;;;8.32;62.97;99699.72;5113147;28;20043;-75
2023/01/06 03:35:26;;;;;;;6.55;3.33;;;;;;;7.78;63.21;99613.91;5114196;28;20103;-75
2023/01/06 03:37:59;;;;;;;6.40;2.75;;;;;;;7.74;63.26;99603.53;5113022;28;20116;-74
2023/01/06 03:40:33;;;;;;;10.75;4.20;;;;;;;8.26;63.26;99695.53;5112106;28;20051;-75
2023/01/06 03:43:15;;;;;;;5.75;2.88;;;;;;;8.21;63.31;99697.50;5112763;28;20063;-75
2023/01/06 03:46:00;;;;;;;6.18;2.83;;;;;;;7.55;63.63;99915.50;5112471;28;20051;-75
2023/01/06 03:48:40;;;;;;;10.35;3.47;;;;;;;7.64;63.21;99661.94;5110166;28;20239;-75
2023/01/06 03:51:18;;;;;;;6.90;2.95;;;;;;;4.87;63.19;99174.59;5113543;28;20105;-75
2023/01/06 03:53:54;;;;;;;8.32;3.90;;;;;;;7.18;63.40;99535.38;5113114;28;20055;-75
2023/01/06 03:56:31;;;;;;;8.10;3.38;;;;;;;4.33;63.25;99067.13;5112163;28;20047;-74
2023/01/06 03:59:08;;;;;;;6.65;2.92;;;;;;;6.48;63.28;99428.22;5113947;28;20051;-75
2023/01/06 04:01:37;;;;;;;6.18;3.17;;;;;;;6.76;63.46;99472.81;5096839;28;20111;-75
2023/01/06 04:04:04;;;;;;;9.10;3.22;;;;;;;8.15;63.40;99710.09;5111736;28;20093;-75
2023/01/06 04:06:32;;;;;;;7.80;3.25;;;;;;;8.14;63.51;99717.16;5111881;28;20050;-75
2023/01/06 04:08:59;;;;;;;5.13;2.72;;;;;;;8.15;63.57;99710.09;5112265;28;20330;-74
2023/01/06 04:14:10;;;;;;;10.00;3.58;;;;;;;8.13;63.69;99717.22;5111764;28;20048;-75
2023/01/06 04:16:37;;;;;;;8.07;3.13;;;;;;;8.10;63.86;99712.91;5111540;28;20040;-75
2023/01/06 04:19:04;;;;;;;7.15;2.88;;;;;;;7.90;63.74;99678.53;5112265;28;20036;-74
2023/01/06 04:21:33;;;;;;;7.05;3.17;;;;;;;7.54;63.82;99646.50;5111196;28;20098;-75
2023/01/06 04:24:01;;;;;;;6.25;3.30;;;;;;;7.30;63.76;99591.13;5109763;28;20036;-74
2023/01/06 04:26:28;;;;;;;6.78;3.47;;;;;;;6.56;63.58;99484.09;5094400;28;20040;-75
2023/01/06 04:28:58;;;;;;;8.30;3.40;;;;;;;8.03;63.80;99707.03;5111736;28;20040;-75
2023/01/06 04:31:28;;;;;;;6.30;2.97;;;;;;;1.77;63.50;98635.69;5110825;28;20196;-75
2023/01/06 04:34:00;;;;;;;5.97;3.00;;;;;;;8.03;63.69;99696.47;5112128;28;20040;-74
2023/01/06 04:36:30;;;;;;;;;;;;;;;7.97;63.70;99696.69;5112092;28;20135;-74
2023/01/06 04:39:02;;;;;;;7.78;2.90;;;;;;;0.58;63.48;98457.41;5112406;28;20172;-74
2023/01/06 04:41:32;;;;;;;6.75;3.05;;;;;;;5.56;63.95;99293.06;5094552;28;20065;-74
2023/01/06 04:44:00;;;;;;;5.53;3.05;;;;;;;7.99;63.80;99696.63;5111856;28;20181;-74
2023/01/06 04:46:31;;;;;;;10.15;3.42;;;;;;;7.83;63.93;99669.13;5112369;28;20059;-74
2023/01/06 04:49:00;;;;;;;7.45;2.90;;;;;;;7.98;63.55;99721.31;5111728;28;20044;-73
2023/01/06 04:51:27;;;;;;;7.97;2.95;;;;;;;7.99;63.93;99718.63;5114236;28;20043;-74
2023/01/06 04:53:54;;;;;;;5.03;2.50;;;;;;;8.00;63.82;99701.84;5110862;28;20119;-74
2023/01/06 04:56:22;;;;;;;9.68;2.97;;;;;;;1.83;63.33;98918.56;5110872;28;20039;-74
2023/01/06 04:58:49;;;;;;;7.75;2.78;;;;;;;7.97;64.02;99699.34;5110045;28;20070;-74
2023/01/06 05:01:16;;;;;;;8.20;3.67;;;;;;;7.97;63.77;99699.34;5110291;28;20036;-74
2023/01/06 05:03:42;;;;;;;5.72;2.80;;;;;;;8.01;63.82;99703.56;5109516;28;20046;-74
2023/01/06 05:06:11;;;;;;;4.75;2.70;;;;;;;7.99;63.97;99709.84;5108965;28;20044;-74
2023/01/06 05:08:40;;;;;;;7.95;3.45;;;;;;;7.97;63.93;99709.91;5109093;28;20040;-74
2023/01/06 05:11:09;;;;;;;6.63;2.85;;;;;;;7.98;63.95;99718.66;5107851;28;20044;-74
2023/01/06 05:13:38;;;;;;;7.45;3.13;;;;;;;7.96;64.16;99733.72;5108840;28;20047;-74
2023/01/06 05:16:06;;;;;;;12.10;4.32;;;;;;;7.99;64.29;99717.75;5108976;28;20036;-74
2023/01/06 05:18:33;;;;;;;7.32;3.50;;;;;;;8.01;64.11;99715.91;5109810;28;20067;-74
2023/01/06 05:21:00;;;;;;;8.68;3.53;;;;;;;8.01;64.19;99715.91;5108478;28;20044;-74
2023/01/06 05:23:27;;;;;;;11.27;4.65;;;;;;;8.03;64.18;99717.56;5107875;28;20260;-74
2023/01/06 05:25:54;;;;;;;11.15;3.50;;;;;;;7.86;64.25;99675.16;5109091;28;20040;-74
2023/01/06 05:28:21;;;;;;;9.27;4.00;;;;;;;8.06;64.23;99711.31;5108657;28;20050;-72
2023/01/06 05:30:50;;;;;;;23.95;13.20;;;;;;;8.09;64.58;99718.25;5106836;28;20036;-74
2023/01/06 05:33:32;;;;;;;13.77;6.03;;;;;;;7.56;64.43;99634.13;5108415;28;20108;-74
2023/01/06 05:35:59;;;;;;;10.27;4.60;;;;;;;7.18;64.37;99561.72;5108938;28;20050;-74
2023/01/06 05:38:26;;;;;;;9.52;3.83;;;;;;;8.12;64.46;99726.91;5108384;28;20040;-74
2023/01/06 05:40:53;;;;;;;9.40;4.30;;;;;;;8.12;64.57;99720.78;5108890;28;20085;-74
2023/01/06 05:43:20;;;;;;;7.82;3.38;;;;;;;7.57;64.61;99655.16;5109460;28;20135;-74
2023/01/06 05:45:49;;;;;;;8.80;3.97;;;;;;;7.68;64.79;99655.63;5109326;28;20062;-74
2023/01/06 05:48:17;;;;;;;11.18;3.95;;;;;;;8.14;64.81;99724.22;5110156;28;20092;-73
2023/01/06 05:50:43;;;;;;;10.27;4.38;;;;;;;8.15;64.86;99725.94;5108158;28;20074;-74
2023/01/06 05:53:10;;;;;;;6.53;3.35;;;;;;;7.49;64.90;99603.63;5109666;28;20207;-74
2023/01/06 05:55:37;;;;;;;6.88;3.50;;;;;;;7.66;64.99;99630.22;5108492;28;20299;-74
2023/01/06 05:58:04;;;;;;;9.68;4.15;;;;;;;8.19;65.03;99716.97;5108222;28;20036;-74
2023/01/06 06:00:30;;;;;;;6.95;3.55;;;;;;;8.20;65.17;99722.19;5108619;28;20079;-73
2023/01/06 06:02:58;;;;;;;8.40;3.55;;;;;;;8.21;65.10;99716.00;5107892;28;20043;-74
2023/01/06 06:05:26;;;;;;;8.27;3.40;;;;;;;7.68;65.25;99647.69;5109728;28;20046;-74
2023/01/06 06:07:54;;;;;;;7.95;3.33;;;;;;;8.22;65.27;99723.00;5108944;28;20048;-74
2023/01/06 06:10:21;;;;;;;8.00;3.28;;;;;;;8.24;65.41;99731.72;5108885;28;20036;-74
2023/01/06 06:12:47;;;;;;;7.90;3.10;;;;;;;8.19;65.35;99716.97;5108638;28;20058;-74
2023/01/06 06:15:14;;;;;;;10.05;3.92;;;;;;;8.28;65.29;99730.66;5107779;28;20042;-74
2023/01/06 06:17:41;;;;;;;7.07;3.55;;;;;;;8.29;65.29;99728.88;5108149;28;20046;-74
2023/01/06 06:20:10;;;;;;;7.63;2.97;;;;;;;8.30;65.37;99738.53;5108394;28;20044;-74
2023/01/06 06:22:36;;;;;;;6.75;3.38;;;;;;;7.93;65.55;99674.00;5107524;28;20028;-74
2023/01/06 06:25:03;;;;;;;5.70;3.15;;;;;;;8.31;65.67;99735.81;5112700;28;20032;-74
2023/01/06 06:27:30;;;;;;;7.18;3.90;;;;;;;8.33;65.63;99736.63;5111592;28;20043;-74
2023/01/06 06:29:57;;;;;;;7.90;3.63;;;;;;;8.35;65.56;99736.56;5111194;28;20046;-74
2023/01/06 06:32:24;;;;;;;5.75;3.03;;;;;;;8.37;65.65;99734.72;5112503;28;20044;-74
2023/01/06 06:34:51;;;;;;;8.18;3.60;;;;;;;8.39;65.66;99734.66;5111635;28;20039;-74
2023/01/06 06:37:19;;;;;;;6.90;3.15;;;;;;;8.38;65.85;99736.44;5111411;28;20031;-74
2023/01/06 06:39:46;;;;;;;9.10;4.18;;;;;;;8.17;65.73;99703.84;5111519;28;20040;-74
2023/01/06 06:42:12;;;;;;;8.27;3.05;;;;;;;8.29;65.57;99720.97;5112231;28;20046;-74
2023/01/06 06:44:39;;;;;;;6.38;2.92;;;;;;;8.44;65.93;99745.91;5111314;28;20044;-74
2023/01/06 06:47:06;;;;;;;5.15;3.17;;;;;;;8.43;66.00;99742.41;5111893;28;20035;-74
2023/01/06 06:49:33;;;;;;;6.15;2.97;;;;;;;8.46;66.15;99747.56;5112018;28;20041;-74
2023/01/06 06:52:00;;;;;;;5.95;2.72;;;;;;;8.47;66.24;99743.13;5110732;28;20051;-74
2023/01/06 06:54:28;;;;;;;11.23;3.40;;;;;;;8.49;66.29;99743.94;5111496;28;20085;-74
2023/01/06 06:56:55;;;;;;;9.13;4.43;;;;;;;8.49;66.44;99746.56;5110685;28;20046;-74
2023/01/06 06:59:22;;;;;;;7.07;3.97;;;;;;;8.50;66.60;99749.16;5111708;28;20040;-74
2023/01/06 07:01:49;;;;;;;15.18;4.18;;;;;;;8.51;66.84;99750.00;5111852;28;20042;-74
2023/01/06 07:04:16;;;;;;;8.45;3.85;;;;;;;8.52;66.88;99754.38;5110855;28;20036;-74
2023/01/06 07:06:43;;;;;;;9.82;4.20;;;;;;;8.55;66.86;99751.59;5110753;28;20039;-74
2023/01/06 07:09:09;;;;;;;6.88;3.45;;;;;;;8.56;67.00;99751.56;5110696;28;20334;-74
2023/01/06 07:11:37;;;;;;;8.02;3.50;;;;;;;8.40;66.98;99724.03;5111176;28;20204;-74
2023/01/06 07:14:04;;;;;;;10.27;3.90;;;;;;;8.58;67.03;99762.91;5110523;28;20044;-74
2023/01/06 07:16:31;;;;;;;8.20;3.47;;;;;;;8.60;67.20;99760.22;5111017;28;20050;-74
2023/01/06 07:18:58;;;;;;;6.70;3.13;;;;;;;8.14;67.04;99677.56;5111311;28;20052;-74
2023/01/06 07:21:25;;;;;;;9.38;2.97;;;;;;;8.64;67.20;99756.53;5111241;28;20036;-74
2023/01/06 07:23:51;;;;;;;9.13;3.53;;;;;;;8.67;67.20;99753.75;5111399;28;20119;-74
2023/01/06 07:26:18;;;;;;;8.90;4.07;;;;;;;8.70;67.37;99758.06;5111014;28;20051;-74
2023/01/06 07:28:46;;;;;;;9.15;4.05;;;;;;;8.71;67.64;99758.00;5111533;28;20062;-74
2023/01/06 07:31:13;;;;;;;6.78;3.92;;;;;;;8.73;67.65;99761.44;5111616;28;20040;-74
2023/01/06 07:33:40;;;;;;;7.22;3.35;;;;;;;8.76;67.81;99758.66;5111122;28;20036;-74
2023/01/06 07:36:08;;;;;;;8.23;4.82;;;;;;;8.78;67.86;99767.38;5111322;28;20040;-74
2023/01/06 07:38:34;;;;;;;8.05;3.88;;;;;;;8.79;68.08;99757.66;5109827;28;20034;-74
2023/01/06 07:41:02;;;;;;;6.45;3.33;;;;;;;8.80;68.25;99770.81;5111067;28;20223;-74
2023/01/06 07:43:28;;;;;;;7.68;4.05;;;;;;;8.83;68.53;99772.47;5110887;28;20038;-74
2023/01/06 07:45:57;;;;;;;9.40;3.97;;;;;;;8.83;68.39;99769.84;5110190;28;20040;-74
2023/01/06 07:48:23;;;;;;;10.38;4.03;;;;;;;8.84;68.50;99767.13;5111040;28;20040;-74
2023/01/06 07:50:50;;;;;;;8.95;3.30;;;;;;;8.86;68.42;99767.94;5111242;28;20050;-74
2023/01/06 07:53:17;;;;;;;10.27;4.10;;;;;;;8.89;68.67;99769.59;5110949;28;20035;-74
2023/01/06 07:55:51;;;;;;;6.47;3.67;;;;;;;8.70;69.41;99735.13;5110175;28;20044;-74
2023/01/06 07:58:18;;;;;;;7.65;4.13;;;;;;;7.44;68.67;99521.19;5110600;28;20035;-74
2023/01/06 08:00:45;;;;;;;7.80;3.42;;;;;;;8.95;68.67;99771.97;5111039;28;20040;-74
2023/01/06 08:03:13;;;;;;;6.18;4.35;;;;;;;8.95;68.67;99775.47;5110096;28;20038;-74
2023/01/06 08:05:41;;;;;;;8.38;4.25;;;;;;;8.95;68.92;99764.03;5110963;28;20036;-74
2023/01/06 08:08:08;;;;;;;6.53;3.45;;;;;;;8.98;68.91;99771.84;5110125;28;20039;-74
2023/01/06 08:10:35;;;;;;;8.65;4.00;;;;;;;8.97;68.86;99760.41;5109393;28;20040;-74
2023/01/06 08:13:02;;;;;;;8.73;4.35;;;;;;;8.99;69.13;99761.19;5110333;28;20044;-74
2023/01/06 08:15:29;;;;;;;11.13;3.80;;;;;;;9.02;69.18;99762.00;5109906;28;20036;-74
2023/01/06 08:17:55;;;;;;;9.30;3.70;;;;;;;9.03;69.13;99758.44;5110029;28;20044;-74
2023/01/06 08:20:23;;;;;;;7.25;3.72;;;;;;;9.04;69.52;99860.63;5110507;28;20102;-74
2023/01/06 08:22:50;;;;;;;8.38;3.78;;;;;;;9.03;69.36;99759.28;5109899;28;20163;-74
2023/01/06 08:25:17;;;;;;;8.60;4.13;;;;;;;8.33;69.64;99643.34;5109393;28;20040;-74
2023/01/06 08:27:44;;;;;;;9.43;4.03;;;;;;;9.06;69.54;99753.88;5109438;28;20042;-74
2023/01/06 08:30:11;;;;;;;6.35;3.55;;;;;;;8.72;69.58;99698.06;5109366;28;20044;-74
2023/01/06 08:32:38;;;;;;;7.55;2.97;;;;;;;9.08;69.90;99754.66;5091951;28;20044;-74
2023/01/06 08:35:06;;;;;;;8.10;3.95;;;;;;;9.10;69.85;99763.38;5108917;28;20039;-74
2023/01/06 08:37:34;;;;;;;6.72;3.05;;;;;;;9.12;69.88;99763.31;5109714;28;20044;-74
2023/01/06 08:40:01;;;;;;;8.75;4.07;;;;;;;9.12;70.09;99758.91;5109501;28;20047;-74
2023/01/06 08:42:28;;;;;;;6.68;3.60;;;;;;;9.12;70.25;99763.31;5109562;28;20040;-74
2023/01/06 08:44:54;;;;;;;4.97;3.53;;;;;;;8.95;70.16;99729.66;5109130;28;20089;-74
2023/01/06 08:47:21;;;;;;;11.02;4.00;;;;;;;9.13;70.12;99768.53;5107724;28;20036;-74
2023/01/06 08:49:48;;;;;;;9.23;4.00;;;;;;;9.12;70.36;99765.97;5108458;28;20284;-74
2023/01/06 08:52:15;;;;;;;8.00;4.32;;;;;;;9.11;70.45;99766.91;5091980;28;20043;-74
2023/01/06 08:54:43;;;;;;;13.20;4.43;;;;;;;8.93;70.67;99739.44;5108230;28;20296;-75
2023/01/06 08:57:10;;;;;;;9.27;4.03;;;;;;;9.00;70.55;99755.00;5109362;28;20064;-74
2023/01/06 08:59:37;;;;;;;10.40;4.85;;;;;;;9.07;71.02;99766.16;5108243;28;20040;-74
2023/01/06 09:02:03;;;;;;;7.72;3.70;;;;;;;9.07;70.80;99763.53;5109284;28;20048;-74
2023/01/06 09:04:30;;;;;;;6.80;3.72;;;;;;;9.08;71.03;99765.25;5109372;28;20207;-74
2023/01/06 09:06:57;;;;;;;7.97;3.55;;;;;;;9.09;71.20;99766.09;5109108;28;20046;-74
2023/01/06 09:09:24;;;;;;;9.02;3.67;;;;;;;9.10;71.05;99763.38;5108052;28;20035;-74
2023/01/06 09:11:52;;;;;;;7.32;3.75;;;;;;;9.11;71.21;99772.19;5108596;28;20044;-74
2023/01/06 09:14:19;;;;;;;9.52;4.35;;;;;;;9.11;71.27;99769.53;5108776;28;20202;-74
2023/01/06 09:16:47;;;;;;;8.85;4.25;;;;;;;9.11;71.32;99775.69;5107698;28;20047;-74
2023/01/06 09:19:15;;;;;;;7.97;4.63;;;;;;;9.10;71.50;99773.97;5107845;28;20066;-74
2023/01/06 09:21:42;;;;;;;8.88;4.38;;;;;;;9.12;71.44;99771.25;5108832;28;20070;-74
2023/01/06 09:24:12;;;;;;;8.45;3.95;;;;;;;9.13;71.73;99773.84;5108529;28;20238;-74
2023/01/06 09:26:39;;;;;;;7.82;4.15;;;;;;;9.15;71.38;99771.13;5108472;28;20040;-75
2023/01/06 09:29:07;;;;;;;8.52;5.00;;;;;;;8.86;71.49;99716.84;5108909;28;20036;-74
2023/01/06 09:31:34;;;;;;;7.88;3.58;;;;;;;9.04;71.48;99746.94;5108462;28;20299;-74
2023/01/06 09:34:01;;;;;;;12.02;4.60;;;;;;;9.20;71.60;99771.81;5108689;28;20196;-74
2023/01/06 09:36:28;;;;;;;9.43;5.10;;;;;;;9.22;71.50;99767.31;5107986;28;20169;-74
2023/01/06 09:38:54;;;;;;;11.65;6.13;;;;;;;9.23;71.74;99756.69;5108601;28;20046;-74
2023/01/06 09:41:51;;;;;;;8.38;4.60;;;;;;;9.28;72.69;99753.84;5108231;28;20048;-74
2023/01/06 09:44:25;;;;;;;7.65;4.53;;;;;;;9.23;71.76;99742.59;5107281;28;20047;-74
2023/01/06 09:46:53;;;;;;;8.80;4.55;;;;;;;9.21;71.53;99740.03;5108263;28;20051;-74
2023/01/06 09:49:27;;;;;;;8.82;4.80;;;;;;;9.32;71.54;99745.69;5108445;28;20051;-74
2023/01/06 09:51:56;;;;;;;8.13;4.40;;;;;;;9.35;71.28;99751.78;5108206;28;20048;-74
2023/01/06 09:54:29;;;;;;;11.20;4.70;;;;;;;9.36;71.14;99746.44;5107911;28;20044;-75
2023/01/06 09:57:02;;;;;;;8.60;4.93;;;;;;;9.37;70.95;99748.16;5107420;28;20036;-74
2023/01/06 09:59:34;;;;;;;6.63;4.32;;;;;;;9.40;70.92;99742.75;5107508;28;20040;-74
2023/01/06 10:02:03;;;;;;;6.82;4.30;;;;;;;9.42;70.61;99740.91;5108395;28;20044;-74
2023/01/06 10:04:30;;;;;;;13.18;5.40;;;;;;;9.43;70.36;99739.13;5107836;28;20188;-74
2023/01/06 10:07:09;;;;;;;13.00;4.82;;;;;;;9.43;70.53;99745.25;5107752;28;20042;-74
2023/01/06 10:09:44;;;;;;;9.32;4.45;;;;;;;9.44;70.53;99746.13;5108471;28;20300;-74
2023/01/06 10:12:24;;;;;;;7.35;3.83;;;;;;;9.46;70.23;99745.13;5108027;28;20055;-74
2023/01/06 10:15:05;;;;;;;7.45;3.40;;;;;;;9.11;69.81;99677.84;5107770;28;20044;-74
2023/01/06 10:17:49;;;;;;;9.27;4.35;;;;;;;9.47;69.72;99743.34;5108098;28;20191;-74
2023/01/06 10:20:43;;;;;;;7.97;3.33;;;;;;;9.49;69.26;99738.84;5108091;28;20055;-74
2023/01/06 10:23:24;;;;;;;6.93;4.13;;;;;;;9.51;69.37;99735.19;5103650;28;20334;-74
2023/01/06 10:25:54;;;;;;;9.60;3.15;;;;;;;8.00;69.00;99466.94;5107939;28;20063;-74
2023/01/06 10:28:29;;;;;;;6.63;3.10;;;;;;;9.64;68.87;99724.91;5106781;28;20039;-75
2023/01/06 10:31:01;;;;;;;7.38;3.00;;;;;;;9.73;68.70;99723.63;5107872;28;20111;-75
2023/01/06 10:33:31;;;;;;;5.43;2.80;;;;;;;9.83;68.49;99714.34;5107907;28;20039;-75
2023/01/06 10:36:00;;;;;;;6.03;2.92;;;;;;;9.94;68.40;99712.06;5107935;28;20192;-75
2023/01/06 10:38:32;;;;;;;5.72;2.83;;;;;;;10.02;68.15;99706.41;5107953;28;20044;-74
2023/01/06 10:41:10;;;;;;;6.43;3.50;;;;;;;10.07;68.01;99705.25;5107190;28;20044;-75
2023/01/06 10:43:37;;;;;;;3.90;2.60;;;;;;;9.75;67.68;99642.38;5106328;28;20254;-74
2023/01/06 10:46:05;;;;;;;5.88;2.75;;;;;;;10.09;67.92;99699.88;5108034;28;20048;-74
2023/01/06 10:48:34;;;;;;;8.30;3.55;;;;;;;10.08;67.89;99690.22;5107665;28;20038;-74
2023/01/06 10:51:21;;;;;;;7.65;3.90;;;;;;;8.96;67.94;99504.06;5107034;28;20039;-74
2023/01/06 10:53:48;;;;;;;7.45;3.97;;;;;;;10.12;67.81;99689.13;5106519;28;20042;-74
2023/01/06 10:56:17;;;;;;;13.38;5.63;;;;;;;10.15;67.74;99687.19;5106874;28;20032;-74
2023/01/06 10:58:50;;;;;;;6.10;4.03;;;;;;;10.21;68.06;99683.41;5107639;28;20070;-75
2023/01/06 11:01:24;;;;;;;5.80;3.30;;;;;;;10.24;67.85;99675.31;5107839;28;20364;-74
2023/01/06 11:04:07;;;;;;;5.95;3.92;;;;;;;10.26;67.70;99663.69;5107729;28;20028;-74
2023/01/06 11:06:34;;;;;;;5.07;3.08;;;;;;;10.28;67.69;99667.13;5106478;28;20044;-74
2023/01/06 11:09:07;;;;;;;5.30;3.95;;;;;;;10.30;67.84;99658.25;5108659;28;20028;-74
2023/01/06 11:11:47;;;;;;;5.90;3.58;;;;;;;10.34;67.98;99663.31;5110930;28;20048;-75
2023/01/06 11:14:18;;;;;;;6.72;3.88;;;;;;;8.76;67.92;99391.34;5111199;28;20241;-75
2023/01/06 11:16:54;;;;;;;7.85;4.05;;;;;;;9.84;68.23;99579.25;5111317;28;20048;-74
2023/01/06 11:19:24;;;;;;;7.28;3.22;;;;;;;10.44;68.07;99658.44;5111047;28;20042;-75
2023/01/06 11:21:51;;;;;;;5.90;3.63;;;;;;;8.87;68.07;99398.75;5110845;28;20046;-74
2023/01/06 11:24:20;;;;;;;5.30;3.38;;;;;;;10.52;67.96;99657.13;5109845;28;20032;-74
2023/01/06 11:26:52;;;;;;;5.07;3.17;;;;;;;10.53;68.12;99650.03;5111108;28;20300;-75
2023/01/06 11:29:25;;;;;;;8.00;3.63;;;;;;;10.54;68.41;99644.63;5110824;28;20181;-75
2023/01/06 11:31:54;;;;;;;6.32;3.72;;;;;;;10.56;68.33;99637.47;5110352;28;20040;-74
2023/01/06 11:34:23;;;;;;;7.78;3.42;;;;;;;10.07;67.94;99553.44;5111004;28;20044;-75
2023/01/06 11:36:52;;;;;;;8.40;4.03;;;;;;;10.64;67.98;99622.97;5110832;28;20047;-74
2023/01/06 11:39:25;;;;;;;5.65;2.90;;;;;;;10.73;68.03;99619.84;5109506;28;20115;-75
2023/01/06 11:41:55;;;;;;;6.43;4.25;;;;;;;10.57;67.81;99575.59;5109938;28;20193;-74
2023/01/06 11:44:30;;;;;;;5.75;2.83;;;;;;;9.95;67.49;99449.00;5109537;28;20036;-75
2023/01/06 11:47:01;;;;;;;6.10;3.15;;;;;;;11.01;67.05;99600.75;5110340;28;20097;-75
2023/01/06 11:49:32;;;;;;;5.57;3.28;;;;;;;11.15;66.75;99596.41;5110027;28;20040;-74
2023/01/06 11:52:01;;;;;;;5.32;3.17;;;;;;;11.27;66.33;99594.03;5109080;28;20204;-74
2023/01/06 11:54:34;;;;;;;5.15;3.10;;;;;;;11.33;65.79;99585.75;5109720;28;20043;-75
2023/01/06 11:57:09;;;;;;;8.30;2.95;;;;;;;11.25;65.59;99559.63;5109320;28;20074;-75
2023/01/06 11:59:50;;;;;;;5.70;3.53;;;;;;;11.49;65.32;99595.44;5110233;28;20042;-75
2023/01/06 12:02:26;;;;;;;4.60;2.97;;;;;;;11.55;65.17;99592.44;5109197;28;20314;-75